Time;durP1;ratioP1;P1;durP2;ratioP2;P2;SDS_P1;SDS_P2;PMS_P1;PMS_P2;Temp;Humidity;BMP_temperature;BMP_pressure;BME280_temperature;BME280_humidity;BME280_pressure;Samples;Min_cycle;Max_cycle;Signal;HPM_P1;HPM_P2
2022/10/05 00:00:45;;;;;;;14.65;8.85;;;;;;;;;;5057445;28;20025;-83
2022/10/05 00:03:11;;;;;;;15.73;8.50;;;;;;;;;;5052184;28;20025;-82
2022/10/05 00:05:37;;;;;;;13.15;8.70;;;;;;;;;;5075127;28;20013;-79
2022/10/05 00:08:09;;;;;;;14.90;7.97;;;;;;;;;;5045467;28;20026;-81
2022/10/05 00:10:36;;;;;;;14.50;8.10;;;;;;;;;;5055963;28;20017;-82
2022/10/05 00:13:02;;;;;;;12.70;8.02;;;;;;;;;;5067677;28;20024;-81
2022/10/05 00:15:28;;;;;;;17.25;8.38;;;;;;;;;;5049254;28;20112;-81
2022/10/05 00:17:55;;;;;;;14.50;7.55;;;;;;;;;;5064258;28;20009;-82
2022/10/05 00:20:25;;;;;;;14.05;7.78;;;;;;;;;;5062418;28;20033;-81
2022/10/05 00:22:55;;;;;;;15.13;7.85;;;;;;;;;;5069638;28;20024;-81
2022/10/05 00:25:21;;;;;;;15.48;8.05;;;;;;;;;;5059975;28;20042;-81
2022/10/05 00:27:56;;;;;;;13.88;7.97;;;;;;;;;;5056723;28;20021;-81
2022/10/05 00:30:23;;;;;;;14.80;8.02;;;;;;;;;;5070172;28;20039;-82
2022/10/05 00:32:49;;;;;;;14.38;7.57;;;;;;;;;;5067151;28;20083;-82
2022/10/05 00:35:16;;;;;;;13.02;7.57;;;;;;;;;;5059158;28;20037;-83
2022/10/05 00:37:43;;;;;;;16.90;7.95;;;;;;;;;;5067038;28;20132;-83
2022/10/05 00:40:21;;;;;;;20.52;11.10;;;;;;;;;;5058988;28;20070;-82
2022/10/05 00:42:47;;;;;;;19.25;10.65;;;;;;;;;;5100877;23;20045;-86
2022/10/05 00:45:19;;;;;;;17.92;10.63;;;9.80;99.90;;;;;;5029309;28;20032;-86
2022/10/05 00:47:48;;;;;;;17.95;10.02;;;;;;;;;;5038835;28;20025;-87
2022/10/05 00:50:14;;;;;;;15.20;10.48;;;;;;;;;;5043476;28;20029;-88
2022/10/05 00:52:59;;;;;;;17.33;10.57;;;9.80;99.90;;;;;;5040439;28;20052;-87
2022/10/05 00:55:52;;;;;;;17.20;10.10;;;9.80;99.90;;;;;;5069290;28;20032;-87
2022/10/05 00:58:39;;;;;;;19.27;10.60;;;9.70;99.90;;;;;;5062667;28;21384;-86
2022/10/05 01:01:13;;;;;;;20.98;10.82;;;9.80;99.90;;;;;;5048555;28;20028;-86
2022/10/05 01:04:12;;;;;;;18.20;9.57;;;9.60;99.90;;;;;;5049426;28;20470;-85
2022/10/05 01:06:59;;;;;;;14.27;9.55;;;9.80;99.90;;;;;;5044642;28;20052;-87
2022/10/05 01:09:36;;;;;;;15.85;8.82;;;9.80;99.90;;;;;;5065497;28;20035;-86
2022/10/05 01:12:19;;;;;;;14.60;8.82;;;9.80;99.90;;;;;;5051264;28;20037;-86
2022/10/05 01:15:16;;;;;;;14.57;9.13;;;9.90;99.90;;;;;;5041218;28;20415;-86
2022/10/05 01:17:43;;;;;;;16.45;9.48;;;;;;;;;;5071538;28;20763;-86
2022/10/05 01:20:31;;;;;;;15.82;9.82;;;9.90;99.90;;;;;;5066905;28;20024;-86
2022/10/05 01:23:22;;;;;;;18.08;9.80;;;9.90;99.90;;;;;;5051889;28;20036;-83
2022/10/05 01:26:26;;;;;;;20.60;10.00;;;9.90;99.90;;;;;;5045365;28;20180;-85
2022/10/05 01:29:16;;;;;;;17.20;9.57;;;9.90;99.90;;;;;;5049374;28;20060;-86
2022/10/05 01:32:01;;;;;;;17.20;9.82;;;;;;;;;;5069012;28;20694;-84
2022/10/05 01:34:45;;;;;;;14.40;9.32;;;10.00;99.90;;;;;;5063878;28;20047;-87
2022/10/05 01:37:19;;;;;;;20.08;9.45;;;9.90;99.90;;;;;;5029192;28;20048;-87
2022/10/05 01:39:51;;;;;;;17.20;9.13;;;10.00;99.90;;;;;;5057100;28;20029;-86
2022/10/05 01:42:34;;;;;;;17.05;10.02;;;10.10;99.90;;;;;;5065098;28;20039;-86
2022/10/05 01:45:28;;;;;;;15.77;9.38;;;10.10;99.90;;;;;;5045857;28;20096;-87
2022/10/05 01:48:12;;;;;;;15.65;8.88;;;10.20;99.90;;;;;;5063319;28;20035;-84
2022/10/05 01:50:46;;;;;;;22.98;10.63;;;10.20;99.90;;;;;;5055328;28;20037;-87
2022/10/05 01:53:18;;;;;;;17.63;9.68;;;;;;;;;;5054473;28;20037;-87
2022/10/05 01:55:48;;;;;;;19.92;9.90;;;;;;;;;;5061811;28;20036;-87
2022/10/05 01:58:27;;;;;;;18.70;10.13;;;10.30;99.90;;;;;;5066754;28;20055;-87
2022/10/05 02:01:09;;;;;;;17.38;9.57;;;10.30;99.90;;;;;;5058488;28;20032;-87
2022/10/05 02:03:40;;;;;;;19.70;10.57;;;10.40;99.90;;;;;;5046946;28;20056;-90
2022/10/05 02:06:18;;;;;;;22.05;10.57;;;10.40;99.90;;;;;;5062656;28;20040;-88
2022/10/05 02:09:00;;;;;;;25.73;12.18;;;10.40;99.90;;;;;;5045257;28;20389;-87
2022/10/05 02:11:26;;;;;;;25.25;11.90;;;;;;;;;;5050502;28;20029;-82
2022/10/05 02:14:14;;;;;;;25.20;11.50;;;10.40;99.90;;;;;;5061051;28;20037;-89
2022/10/05 02:16:42;;;;;;;29.75;12.68;;;10.40;99.90;;;;;;5058546;28;20061;-88
2022/10/05 02:19:15;;;;;;;26.75;11.82;;;10.40;99.90;;;;;;5049473;28;21827;-88
2022/10/05 02:21:41;;;;;;;25.77;12.73;;;;;;;;;;5031028;28;20024;-87
2022/10/05 02:24:12;;;;;;;29.45;11.82;;;10.40;99.90;;;;;;5050010;28;20033;-88
2022/10/05 02:26:38;;;;;;;29.65;12.57;;;10.40;99.90;;;;;;5050107;28;20124;-87
2022/10/05 02:29:09;;;;;;;27.35;13.90;;;10.40;99.90;;;;;;5063175;28;20029;-88
2022/10/05 02:31:45;;;;;;;30.90;13.77;;;10.50;99.90;;;;;;5070236;28;20036;-87
2022/10/05 02:34:38;;;;;;;35.60;13.70;;;10.50;99.90;;;;;;5054418;28;20044;-86
2022/10/05 02:37:26;;;;;;;35.60;14.10;;;10.50;99.90;;;;;;5053980;28;20036;-86
2022/10/05 02:40:17;;;;;;;36.35;13.85;;;10.60;99.90;;;;;;5050561;28;20020;-86
2022/10/05 02:42:59;;;;;;;34.40;13.57;;;10.60;99.90;;;;;;5045857;28;20406;-88
2022/10/05 02:45:30;;;;;;;33.70;14.40;;;10.70;99.90;;;;;;5040376;28;20024;-83
2022/10/05 02:48:08;;;;;;;28.98;13.60;;;10.70;99.90;;;;;;5061734;28;20021;-86
2022/10/05 02:50:48;;;;;;;29.65;13.90;;;10.70;99.90;;;;;;5048060;28;20091;-84
2022/10/05 02:53:40;;;;;;;41.03;15.48;;;10.80;99.90;;;;;;5058511;28;20027;-87
2022/10/05 02:56:29;;;;;;;37.88;14.32;;;10.80;99.90;;;;;;5063275;28;20867;-87
2022/10/05 02:59:28;;;;;;;30.08;14.30;;;10.80;99.90;;;;;;5042911;28;20090;-87
2022/10/05 03:02:02;;;;;;;28.60;13.98;;;10.80;99.90;;;;;;5071462;28;20049;-88
2022/10/05 03:04:28;;;;;;;31.55;14.13;;;;;;;;;;5055158;28;20029;-87
2022/10/05 03:07:27;;;;;;;29.92;14.05;;;10.80;99.90;;;;;;5058116;28;20028;-86
2022/10/05 03:10:25;;;;;;;30.85;13.63;;;10.80;99.90;;;;;;5056967;28;20028;-87
2022/10/05 03:12:54;;;;;;;32.67;13.93;;;10.70;99.90;;;;;;5064997;28;20045;-85
2022/10/05 03:16:00;;;;;;;32.67;14.98;;;10.70;99.90;;;;;;5049761;28;20062;-86
2022/10/05 03:18:26;;;;;;;31.30;14.15;;;;;;;;;;5055664;28;20470;-85
2022/10/05 03:21:50;;;;;;;46.60;15.32;;;10.70;99.90;;;;;;5055853;28;21484;-89
2022/10/05 03:24:17;;;;;;;32.70;14.13;;;;;;;;;;5029805;28;20053;-85
2022/10/05 03:27:06;;;;;;;33.22;14.77;;;10.70;99.90;;;;;;5061323;28;20030;-86
2022/10/05 03:30:02;;;;;;;33.35;14.25;;;10.70;99.90;;;;;;5065554;28;20039;-87
2022/10/05 03:32:33;;;;;;;29.73;13.95;;;10.70;99.90;;;;;;5063888;28;20131;-89
2022/10/05 03:35:06;;;;;;;47.70;13.65;;;10.60;99.90;;;;;;5042615;28;20025;-87
2022/10/05 03:37:51;;;;;;;32.00;12.73;;;10.60;99.90;;;;;;5067388;28;20060;-88
2022/10/05 03:40:26;;;;;;;37.15;12.70;;;;;;;;;;5053767;28;20403;-88
2022/10/05 03:43:08;;;;;;;20.70;11.73;;;10.60;99.90;;;;;;5069661;28;20028;-86
2022/10/05 03:45:51;;;;;;;27.08;12.32;;;10.60;99.90;;;;;;5069352;28;20128;-85
2022/10/05 03:48:31;;;;;;;24.70;11.98;;;10.60;99.90;;;;;;5068292;28;20028;-86
2022/10/05 03:51:00;;;;;;;19.45;11.35;;;;;;;;;;5068122;28;20028;-85
2022/10/05 03:53:49;;;;;;;21.65;11.52;;;10.60;99.90;;;;;;5059058;28;20036;-84
2022/10/05 03:56:45;;;;;;;21.58;11.50;;;10.60;99.90;;;;;;5058237;28;20029;-87
2022/10/05 03:59:15;;;;;;;20.35;11.57;;;;;;;;;;5056718;28;20109;-85
2022/10/05 04:01:57;;;;;;;20.10;10.60;;;10.60;99.90;;;;;;5081521;28;20032;-86
2022/10/05 04:04:38;;;;;;;19.83;10.82;;;10.60;99.90;;;;;;5038853;28;20033;-86
2022/10/05 04:07:10;;;;;;;18.85;10.65;;;10.60;99.90;;;;;;5059065;28;20541;-87
2022/10/05 04:09:40;;;;;;;24.40;11.00;;;10.60;99.90;;;;;;5043373;28;20327;-86
2022/10/05 04:12:24;;;;;;;16.48;9.85;;;10.60;99.90;;;;;;5054287;28;20605;-86
2022/10/05 04:14:55;;;;;;;19.50;10.68;;;10.60;99.90;;;;;;5056838;28;20100;-85
2022/10/05 04:17:31;;;;;;;17.77;10.10;;;10.60;99.90;;;;;;5059958;28;20033;-85
2022/10/05 04:19:59;;;;;;;16.17;9.95;;;;;;;;;;5067683;28;20029;-86
2022/10/05 04:22:55;;;;;;;17.80;10.32;;;10.60;99.90;;;;;;5065354;28;20021;-86
2022/10/05 04:25:51;;;;;;;18.00;10.32;;;10.50;99.90;;;;;;5074026;28;20084;-87
2022/10/05 04:28:17;;;;;;;15.50;9.40;;;;;;;;;;5056413;28;20029;-84
2022/10/05 04:30:47;;;;;;;17.25;10.32;;;10.60;99.90;;;;;;5052438;28;20536;-84
2022/10/05 04:33:14;;;;;;;15.20;9.82;;;;;;;;;;5061403;28;20044;-87
2022/10/05 04:35:58;;;;;;;16.80;9.73;;;10.60;99.90;;;;;;5045999;28;20059;-88
2022/10/05 04:38:38;;;;;;;16.20;9.55;;;10.50;99.90;;;;;;5061432;28;20505;-87
2022/10/05 04:41:04;;;;;;;15.13;9.32;;;;;;;;;;5042613;28;20033;-87
2022/10/05 04:43:30;;;;;;;12.25;8.85;;;;;;;;;;5035685;28;20464;-88
2022/10/05 04:46:05;;;;;;;12.20;8.60;;;;;;;;;;5042614;28;20578;-86
2022/10/05 04:48:31;;;;;;;13.85;8.57;;;;;;;;;;5052516;28;20028;-85
2022/10/05 04:51:16;;;;;;;12.90;8.73;;;10.70;99.90;;;;;;5044473;28;20101;-86
2022/10/05 04:54:03;;;;;;;12.10;8.43;;;10.70;99.90;;;;;;5073946;28;20166;-86
2022/10/05 04:56:46;;;;;;;14.07;8.73;;;10.70;99.90;;;;;;5064854;28;20049;-85
2022/10/05 04:59:26;;;;;;;12.35;8.45;;;10.60;99.90;;;;;;5057125;28;20040;-85
2022/10/05 05:02:22;;;;;;;14.00;8.93;;;10.80;99.90;;;;;;5038294;28;20040;-84
2022/10/05 05:05:15;;;;;;;11.30;8.52;;;10.70;99.90;;;;;;5062432;28;20497;-84
2022/10/05 05:07:52;;;;;;;12.43;8.50;;;10.70;99.90;;;;;;5037970;28;20051;-87
2022/10/05 05:10:39;;;;;;;13.20;7.78;;;10.80;99.90;;;;;;5043969;28;20655;-85
2022/10/05 05:13:29;;;;;;;11.80;8.30;;;10.80;99.90;;;;;;5054379;28;20032;-87
2022/10/05 05:16:10;;;;;;;12.30;8.52;;;10.80;99.90;;;;;;5062343;28;20141;-86
2022/10/05 05:18:36;;;;;;;11.40;8.00;;;;;;;;;;5061552;28;20044;-84
2022/10/05 05:21:35;;;;;;;10.57;8.07;;;10.90;99.90;;;;;;5080149;28;20035;-88
2022/10/05 05:24:43;;;;;;;11.27;7.95;;;11.00;99.90;;;;;;5072352;28;20021;-84
2022/10/05 05:27:09;;;;;;;11.38;7.43;;;;;;;;;;5030680;28;20028;-84
2022/10/05 05:30:03;;;;;;;12.82;9.02;;;11.00;99.90;;;;;;5051438;28;20037;-86
2022/10/05 05:32:29;;;;;;;11.55;8.15;;;;;;;;;;5052988;28;20032;-85
2022/10/05 05:34:55;;;;;;;11.18;8.10;;;;;;;;;;5071138;28;20024;-84
2022/10/05 05:37:42;;;;;;;11.05;7.97;;;11.00;99.90;;;;;;5065829;28;20040;-84
2022/10/05 05:40:11;;;;;;;12.43;8.70;;;;;;;;;;5076879;28;20408;-84
2022/10/05 05:42:43;;;;;;;14.68;9.05;;;;;;;;;;5056885;28;20056;-82
2022/10/05 05:45:22;;;;;;;14.15;8.98;;;10.90;99.90;;;;;;5057691;28;20024;-83
2022/10/05 05:47:53;;;;;;;14.63;9.13;;;10.90;99.90;;;;;;5061119;28;20209;-83
2022/10/05 05:50:32;;;;;;;12.95;9.40;;;10.90;99.90;;;;;;5083612;28;20029;-85
2022/10/05 05:53:11;;;;;;;13.77;8.82;;;10.90;99.90;;;;;;5067374;28;20036;-84
2022/10/05 05:56:09;;;;;;;12.45;8.40;;;10.90;99.90;;;;;;5067800;28;20040;-86
2022/10/05 05:58:40;;;;;;;14.02;9.45;;;11.00;99.90;;;;;;5056844;28;20023;-86
2022/10/05 06:01:17;;;;;;;14.10;9.20;;;11.00;99.90;;;;;;5071430;28;20091;-85
2022/10/05 06:03:49;;;;;;;11.77;8.52;;;11.00;99.90;;;;;;5079440;28;20120;-84
2022/10/05 06:06:16;;;;;;;13.95;9.80;;;11.00;99.90;;;;;;5062685;28;20036;-84
2022/10/05 06:08:56;;;;;;;12.55;8.75;;;10.90;99.90;;;;;;5078049;28;20032;-85
2022/10/05 06:11:27;;;;;;;13.50;8.90;;;11.00;99.90;;;;;;5067052;28;20024;-86
2022/10/05 06:13:57;;;;;;;12.90;8.95;;;11.00;99.90;;;;;;5084082;28;20040;-84
2022/10/05 06:16:44;;;;;;;12.63;8.87;;;11.10;99.90;;;;;;5083810;28;20095;-84
2022/10/05 06:19:20;;;;;;;12.15;8.98;;;11.10;99.90;;;;;;5070476;28;20032;-82
2022/10/05 06:21:54;;;;;;;12.38;8.93;;;11.10;99.90;;;;;;5074296;28;20032;-85
2022/10/05 06:24:19;;;;;;;11.98;8.75;;;;;;;;;;5065826;28;20028;-87
2022/10/05 06:27:04;;;;;;;14.45;8.80;;;11.10;99.90;;;;;;5089923;28;20017;-86
2022/10/05 06:30:02;;;;;;;12.32;8.70;;;11.10;99.90;;;;;;5079493;28;20084;-84
2022/10/05 06:32:36;;;;;;;13.45;8.88;;;11.10;99.90;;;;;;5074566;28;20040;-86
2022/10/05 06:35:44;;;;;;;12.60;8.85;;;11.10;99.90;;;;;;5064721;28;20028;-83
2022/10/05 06:38:40;;;;;;;13.85;9.05;;;11.00;99.90;;;;;;5050770;28;20055;-86
2022/10/05 06:41:32;;;;;;;13.00;7.95;;;11.10;99.90;;;;;;5058871;28;20013;-84
2022/10/05 06:43:58;;;;;;;12.43;8.88;;;;;;;;;;5064583;28;20036;-83
2022/10/05 06:46:24;;;;;;;15.02;8.60;;;;;;;;;;5064316;28;20163;-81
2022/10/05 06:49:16;;;;;;;17.45;9.35;;;11.10;99.90;;;;;;5069341;28;20404;-84
2022/10/05 06:51:42;;;;;;;14.73;9.57;;;;;;;;;;5048762;28;20039;-83
2022/10/05 06:54:20;;;;;;;17.33;10.20;;;;;;;;;;5068506;28;20028;-86
2022/10/05 06:57:01;;;;;;;17.15;10.15;;;;;;;;;;5083101;28;20039;-85
2022/10/05 06:59:53;;;;;;;13.73;8.88;;;11.30;99.90;;;;;;5074874;28;20029;-85
2022/10/05 07:02:25;;;;;;;14.98;9.07;;;;;;;;;;5066092;28;20211;-87
2022/10/05 07:05:35;;;;;;;16.60;10.10;;;11.30;99.90;;;;;;5074238;28;20032;-84
2022/10/05 07:08:27;;;;;;;16.77;9.45;;;11.40;99.90;;;;;;5004057;28;20107;-85
2022/10/05 07:10:59;;;;;;;17.45;9.63;;;;;;;;;;4979853;28;20106;-86
2022/10/05 07:13:40;;;;;;;14.50;8.52;;;;;;;;;;5056512;28;20036;-87
2022/10/05 07:16:34;;;;;;;14.68;8.52;;;11.60;99.90;;;;;;5069755;28;20029;-87
2022/10/05 07:19:00;;;;;;;14.60;9.18;;;;;;;;;;5068276;28;20020;-87
2022/10/05 07:22:05;;;;;;;15.57;9.50;;;11.60;99.90;;;;;;5092533;28;20059;-85
2022/10/05 07:24:33;;;;;;;14.60;8.50;;;11.80;99.90;;;;;;5069977;28;20051;-87
2022/10/05 07:31:11;;;;;;;11.38;7.47;;;11.90;99.90;;;;;;5082944;28;20429;-87
2022/10/05 07:34:00;;;;;;;15.05;8.13;;;11.80;99.90;;;;;;5062521;28;20043;-85
2022/10/05 07:39:30;;;;;;;14.25;8.48;;;;;;;;;;5091434;28;20039;-87
2022/10/05 07:42:39;;;;;;;14.50;8.65;;;12.10;99.90;;;;;;5064993;28;20040;-87
2022/10/05 07:45:26;;;;;;;13.93;8.13;;;12.20;99.90;;;;;;5064982;28;20053;-87
2022/10/05 07:47:55;;;;;;;14.65;8.35;;;12.30;99.90;;;;;;5077223;28;20026;-88
2022/10/05 07:50:37;;;;;;;13.65;8.25;;;12.40;99.90;;;;;;5083120;28;20031;-85
2022/10/05 07:53:19;;;;;;;13.82;8.10;;;12.50;99.90;;;;;;5081478;28;20028;-88
2022/10/05 07:55:53;;;;;;;13.07;7.78;;;;;;;;;;5074850;28;20024;-82
2022/10/05 07:59:12;;;;;;;13.98;8.38;;;12.60;99.90;;;;;;5053968;28;20047;-83
2022/10/05 08:01:42;;;;;;;15.02;7.72;;;12.70;99.90;;;;;;5042411;28;20044;-83
2022/10/05 08:04:16;;;;;;;13.75;8.23;;;12.70;99.90;;;;;;5054872;28;20036;-83
2022/10/05 08:07:13;;;;;;;13.82;8.40;;;12.80;99.90;;;;;;5070291;28;20243;-86
2022/10/05 08:09:52;;;;;;;18.38;8.50;;;12.80;99.90;;;;;;5053285;28;20401;-81
2022/10/05 08:12:30;;;;;;;13.40;8.10;;;13.00;99.90;;;;;;5080086;28;20032;-82
2022/10/05 08:15:16;;;;;;;13.30;8.23;;;13.00;99.90;;;;;;5053922;28;20056;-82
2022/10/05 08:18:09;;;;;;;15.77;8.77;;;13.10;99.90;;;;;;5079457;28;20029;-86
2022/10/05 08:20:43;;;;;;;15.02;8.93;;;13.20;99.90;;;;;;5084903;28;20402;-85
2022/10/05 08:23:12;;;;;;;15.05;8.93;;;;;;;;;;5060233;28;20466;-84
2022/10/05 08:25:46;;;;;;;16.40;8.10;;;13.20;99.90;;;;;;5053339;28;20027;-83
2022/10/05 08:28:19;;;;;;;15.98;9.38;;;13.20;99.90;;;;;;5076084;28;20151;-84
2022/10/05 08:31:07;;;;;;;16.17;9.27;;;13.20;99.90;;;;;;5070831;28;20078;-85
2022/10/05 08:34:02;;;;;;;13.38;8.57;;;13.20;99.90;;;;;;5059375;28;20035;-83
2022/10/05 08:36:49;;;;;;;17.50;9.48;;;13.30;99.90;;;;;;5057390;28;20029;-85
2022/10/05 08:39:19;;;;;;;16.05;8.93;;;13.30;99.90;;;;;;5061570;28;20024;-87
2022/10/05 08:41:54;;;;;;;17.15;9.80;;;;;;;;;;5053655;28;20046;-85
2022/10/05 08:44:29;;;;;;;16.05;9.73;;;13.30;99.90;;;;;;5053960;28;20028;-84
2022/10/05 08:47:04;;;;;;;17.92;9.32;;;13.30;99.90;;;;;;5069293;28;20525;-82
2022/10/05 08:49:29;;;;;;;15.10;9.15;;;13.40;99.90;;;;;;5056782;28;20028;-82
2022/10/05 08:52:25;;;;;;;18.20;9.98;;;13.50;99.90;;;;;;5075905;28;20102;-85
2022/10/05 08:55:09;;;;;;;17.98;9.70;;;13.60;99.90;;;;;;5066390;28;20059;-85
2022/10/05 08:57:58;;;;;;;17.58;10.20;;;13.50;99.90;;;;;;5075866;28;20096;-85
2022/10/05 09:00:38;;;;;;;16.55;9.52;;;13.70;99.90;;;;;;5078182;28;20040;-86
2022/10/05 09:03:22;;;;;;;14.50;9.35;;;13.80;99.90;;;;;;5077521;28;20032;-85
2022/10/05 09:06:03;;;;;;;15.80;9.43;;;13.80;99.90;;;;;;5060586;28;20033;-86
2022/10/05 09:08:32;;;;;;;19.67;10.15;;;;;;;;;;5062091;28;20032;-83
2022/10/05 09:11:04;;;;;;;17.20;9.95;;;14.10;99.90;;;;;;5064110;28;20543;-85
2022/10/05 09:14:08;;;;;;;19.75;10.48;;;14.20;99.90;;;;;;5061244;28;20111;-83
2022/10/05 09:17:04;;;;;;;17.52;10.23;;;14.20;99.90;;;;;;5075788;28;20123;-85
2022/10/05 09:19:30;;;;;;;17.45;10.38;;;;;;;;;;5064796;28;20036;-86
2022/10/05 09:22:04;;;;;;;16.27;9.45;;;14.40;99.90;;;;;;5059507;28;20062;-86
2022/10/05 09:25:03;;;;;;;17.52;9.55;;;14.50;99.90;;;;;;5061282;28;20050;-87
2022/10/05 09:27:36;;;;;;;14.82;9.02;;;14.60;99.90;;;;;;5078479;28;20025;-87
2022/10/05 09:30:12;;;;;;;16.05;9.13;;;14.70;99.90;;;;;;5060946;28;20502;-86
2022/10/05 09:32:59;;;;;;;17.45;10.15;;;14.70;99.90;;;;;;5058493;28;20036;-84
2022/10/05 09:35:56;;;;;;;14.40;8.85;;;14.70;99.90;;;;;;5062502;28;20032;-84
2022/10/05 09:38:57;;;;;;;14.40;8.98;;;14.80;99.90;;;;;;5080065;28;20291;-87
2022/10/05 09:41:50;;;;;;;14.55;9.02;;;14.80;99.90;;;;;;5034645;28;20083;-87
2022/10/05 09:44:31;;;;;;;13.63;8.75;;;14.90;99.90;;;;;;5067285;28;20115;-86
2022/10/05 09:46:56;;;;;;;14.15;8.38;;;;;;;;;;5061110;28;20436;-87
2022/10/05 09:49:27;;;;;;;15.63;9.15;;;;;;;;;;5067408;28;20021;-85
2022/10/05 09:52:06;;;;;;;13.90;8.70;;;14.90;99.90;;;;;;5052134;28;20169;-84
2022/10/05 09:54:55;;;;;;;12.73;8.40;;;14.90;99.90;;;;;;5073799;28;20036;-85
2022/10/05 09:57:21;;;;;;;13.73;8.70;;;;;;;;;;5079584;28;20020;-84
2022/10/05 10:00:16;;;;;;;11.98;8.25;;;14.90;99.90;;;;;;5062157;28;20273;-83
2022/10/05 10:03:01;;;;;;;13.30;8.52;;;14.80;99.90;;;;;;5062212;28;20064;-83
2022/10/05 10:05:54;;;;;;;10.48;7.07;;;14.90;99.90;;;;;;5081464;28;20025;-89
2022/10/05 10:08:43;;;;;;;11.27;7.03;;;15.00;99.90;;;;;;5062869;28;20024;-83
2022/10/05 10:11:31;;;;;;;9.88;6.32;;;15.20;99.90;;;;;;5079098;28;20063;-81
2022/10/05 10:13:58;;;;;;;8.30;5.85;;;;;;;;;;5060862;28;20024;-85
2022/10/05 10:16:36;;;;;;;8.70;6.03;;;;;;;;;;5076228;28;20031;-83
2022/10/05 10:19:29;;;;;;;8.52;6.28;;;15.60;99.90;;;;;;5055004;28;20390;-84
2022/10/05 10:22:19;;;;;;;10.43;6.50;;;15.70;99.90;;;;;;5082801;28;20119;-83
2022/10/05 10:25:02;;;;;;;10.50;6.70;;;15.80;99.90;;;;;;5055301;28;20493;-83
2022/10/05 10:28:03;;;;;;;9.65;5.95;;;15.80;99.90;;;;;;5084946;28;20032;-83
2022/10/05 10:31:10;;;;;;;12.35;6.15;;;16.20;99.90;;;;;;5058061;28;20398;-86
2022/10/05 10:34:04;;;;;;;9.07;5.93;;;16.50;99.90;;;;;;5021347;28;20120;-82
2022/10/05 10:36:49;;;;;;;7.28;5.60;;;16.50;99.90;;;;;;5067374;28;20035;-83
2022/10/05 10:39:36;;;;;;;10.02;5.78;;;16.80;99.90;;;;;;5050924;28;20029;-83
2022/10/05 10:42:36;;;;;;;7.55;5.35;;;16.80;99.90;;;;;;5056974;28;20031;-84
2022/10/05 10:45:29;;;;;;;8.70;5.70;;;17.00;99.90;;;;;;5068170;28;20029;-80
2022/10/05 10:48:30;;;;;;;9.75;5.57;;;17.30;99.90;;;;;;5077377;28;20278;-83
2022/10/05 10:51:01;;;;;;;8.98;5.05;;;17.30;99.90;;;;;;5058833;28;20032;-83
2022/10/05 10:54:01;;;;;;;8.85;5.80;;;17.50;99.90;;;;;;5075793;28;20084;-83
2022/10/05 10:56:46;;;;;;;10.65;5.68;;;17.60;99.90;;;;;;5055287;28;20033;-83
2022/10/05 10:59:27;;;;;;;7.65;5.75;;;17.30;99.90;;;;;;5069315;28;20024;-81
2022/10/05 11:02:19;;;;;;;10.55;5.90;;;17.40;99.90;;;;;;5051852;28;20532;-80
2022/10/05 11:05:05;;;;;;;8.27;5.72;;;17.50;99.90;;;;;;5059715;28;20028;-81
2022/10/05 11:07:33;;;;;;;7.45;5.35;;;17.80;99.90;;;;;;5050664;28;20024;-82
2022/10/05 11:10:02;;;;;;;7.60;5.70;;;17.90;99.90;;;;;;5050605;28;20028;-82
2022/10/05 11:12:50;;;;;;;8.18;5.68;;;17.90;99.90;;;;;;5055227;28;20033;-84
2022/10/05 11:15:55;;;;;;;7.22;5.57;;;18.00;99.90;;;;;;5052578;28;20460;-83
2022/10/05 11:18:24;;;;;;;6.88;5.07;;;;;;;;;;5063524;28;20025;-82
2022/10/05 11:21:24;;;;;;;8.02;5.10;;;18.00;99.90;;;;;;5060938;28;20040;-84
2022/10/05 11:23:53;;;;;;;;;;;18.20;99.90;;;;;;5060084;28;20046;-83
2022/10/05 11:26:59;;;;;;;8.25;5.53;;;18.40;99.90;;;;;;5066625;28;19960;-83
2022/10/05 11:29:58;;;;;;;6.28;4.97;;;18.60;99.90;;;;;;5073364;28;20028;-83
2022/10/05 11:33:01;;;;;;;6.90;4.53;;;18.80;99.90;;;;;;5071358;28;20425;-83
2022/10/05 11:35:58;;;;;;;8.50;4.30;;;18.70;99.90;;;;;;5076345;28;20110;-82
2022/10/05 11:38:27;;;;;;;6.85;4.82;;;18.70;99.90;;;;;;5068127;28;20032;-84
2022/10/05 11:41:11;;;;;;;5.65;3.90;;;18.70;99.90;;;;;;5068048;28;20552;-81
2022/10/05 11:44:02;;;;;;;9.00;4.55;;;18.70;99.90;;;;;;5049695;28;20037;-83
2022/10/05 11:46:45;;;;;;;9.25;4.20;;;18.80;99.90;;;;;;5052978;28;20027;-81
2022/10/05 11:49:23;;;;;;;7.00;4.40;;;19.00;99.90;;;;;;5048605;28;20020;-83
2022/10/05 11:52:13;;;;;;;6.20;3.67;;;19.20;99.90;;;;;;5075487;28;20016;-84
2022/10/05 11:54:46;;;;;;;5.45;3.90;;;19.30;99.90;;;;;;5066005;28;20025;-82
2022/10/05 11:57:37;;;;;;;4.88;3.53;;;18.50;99.90;;;;;;5056042;28;20058;-84
2022/10/05 12:00:21;;;;;;;5.55;2.92;;;19.80;99.90;;;;;;5043113;28;20433;-85
2022/10/05 12:02:47;;;;;;;5.60;3.20;;;;;;;;;;5064487;28;20033;-86
2022/10/05 12:05:31;;;;;;;4.07;3.08;;;20.30;99.90;;;;;;5071780;28;20074;-82
2022/10/05 12:08:22;;;;;;;7.07;2.67;;;20.20;99.90;;;;;;5054722;22;20468;-85
2022/10/05 12:11:01;;;;;;;3.20;2.35;;;20.30;99.90;;;;;;5007004;28;20034;-85
2022/10/05 12:13:39;;;;;;;6.15;2.33;;;20.40;99.90;;;;;;5013317;28;20044;-86
2022/10/05 12:16:18;;;;;;;8.38;4.05;;;20.60;99.90;;;;;;5011874;28;20034;-84
2022/10/05 12:19:17;;;;;;;5.47;2.42;;;20.70;99.90;;;;;;5032983;28;20030;-86
2022/10/05 12:21:58;;;;;;;4.15;2.30;;;20.80;99.90;;;;;;5010338;28;20375;-83
2022/10/05 12:24:30;;;;;;;5.15;2.25;;;20.70;99.90;;;;;;5036257;28;20060;-85
2022/10/05 12:27:03;;;;;;;3.20;2.05;;;20.70;99.90;;;;;;5029892;28;20024;-86
2022/10/05 12:29:38;;;;;;;4.07;2.70;;;;;;;;;;5032213;28;20036;-82
2022/10/05 12:32:10;;;;;;;5.20;2.30;;;20.80;99.90;;;;;;5031757;28;20052;-83
2022/10/05 12:35:14;;;;;;;5.35;2.10;;;22.00;99.90;;;;;;5014269;28;20022;-82
2022/10/05 12:37:52;;;;;;;3.17;1.52;;;20.70;99.90;;;;;;5026437;28;20057;-83
2022/10/05 12:40:42;;;;;;;2.65;1.73;;;20.80;99.90;;;;;;5010576;28;20029;-82
2022/10/05 12:43:30;;;;;;;2.90;2.00;;;20.80;99.90;;;;;;5009019;28;20056;-86
2022/10/05 12:45:56;;;;;;;3.95;2.03;;;;;;;;;;5007120;28;20037;-86
2022/10/05 12:48:55;;;;;;;6.18;3.63;;;20.90;99.90;;;;;;5027927;28;20072;-84
2022/10/05 12:51:44;;;;;;;4.43;2.22;;;21.10;99.90;;;;;;5035028;28;20127;-84
2022/10/05 12:54:16;;;;;;;2.72;1.70;;;21.20;99.90;;;;;;5033009;28;20478;-84
2022/10/05 12:56:50;;;;;;;4.47;2.20;;;21.20;99.90;;;;;;5027009;28;20980;-82
2022/10/05 12:59:28;;;;;;;5.35;2.38;;;21.20;99.90;;;;;;5012213;28;20033;-84
2022/10/05 13:02:18;;;;;;;4.55;1.92;;;21.20;99.90;;;;;;5034685;28;20033;-86
2022/10/05 13:04:43;;;;;;;;;;;21.30;99.90;;;;;;5014243;28;20030;-82
2022/10/05 13:07:15;;;;;;;3.67;1.90;;;21.20;99.90;;;;;;5010803;28;19963;-83
2022/10/05 13:09:53;;;;;;;4.00;2.08;;;21.30;99.90;;;;;;5026842;28;20021;-83
2022/10/05 13:12:51;;;;;;;2.95;1.90;;;21.30;99.90;;;;;;5025479;28;20030;-84
2022/10/05 13:15:39;;;;;;;9.55;2.60;;;21.30;99.90;;;;;;5026098;28;20113;-83
2022/10/05 13:18:26;;;;;;;5.55;2.40;;;21.30;99.90;;;;;;5030045;28;20029;-85
2022/10/05 13:20:57;;;;;;;2.53;1.58;;;21.50;99.90;;;;;;5027627;28;20057;-83
2022/10/05 13:23:30;;;;;;;3.25;1.90;;;21.50;99.90;;;;;;5034321;28;20069;-83
2022/10/05 13:26:02;;;;;;;4.10;2.20;;;21.60;99.90;;;;;;5033508;28;20021;-83
2022/10/05 13:28:43;;;;;;;6.70;2.28;;;21.60;99.90;;;;;;5039556;28;20031;-83
2022/10/05 13:31:23;;;;;;;4.22;2.22;;;21.60;99.90;;;;;;5033462;28;20029;-82
2022/10/05 13:34:00;;;;;;;5.28;1.98;;;21.60;99.90;;;;;;5035280;28;20026;-85
2022/10/05 13:36:25;;;;;;;3.83;1.75;;;;;;;;;;5013087;28;20037;-84
2022/10/05 13:39:02;;;;;;;3.50;2.00;;;21.70;99.90;;;;;;5016583;28;20025;-83
2022/10/05 13:42:14;;;;;;;2.80;2.00;;;22.70;99.90;;;;;;5035789;28;20029;-85
2022/10/05 13:44:57;;;;;;;3.35;2.20;;;21.70;99.90;;;;;;5015308;28;20073;-85
2022/10/05 13:47:33;;;;;;;5.20;2.25;;;21.70;99.90;;;;;;5039456;28;20099;-85
2022/10/05 13:50:06;;;;;;;4.10;1.98;;;21.80;99.90;;;;;;5038321;28;20048;-82
2022/10/05 13:52:43;;;;;;;3.33;1.92;;;21.70;99.90;;;;;;5016331;28;20602;-82
2022/10/05 13:55:46;;;;;;;3.85;2.00;;;21.70;99.90;;;;;;5031704;28;20479;-83
2022/10/05 13:58:40;;;;;;;3.33;1.83;;;21.70;99.90;;;;;;5038835;28;20030;-84
2022/10/05 14:01:14;;;;;;;3.47;1.65;;;21.60;99.90;;;;;;5038169;28;20025;-85
2022/10/05 14:03:40;;;;;;;3.65;1.88;;;;;;;;;;5032903;28;20026;-84
2022/10/05 14:06:29;;;;;;;3.03;1.85;;;21.50;99.90;;;;;;5031998;28;20112;-82
2022/10/05 14:08:56;;;;;;;2.30;1.70;;;;;;;;;;5036482;28;20070;-82
2022/10/05 14:11:35;;;;;;;2.80;1.92;;;21.50;99.90;;;;;;5040839;28;20025;-84
2022/10/05 14:14:22;;;;;;;4.83;1.70;;;21.50;99.90;;;;;;5029344;28;20032;-83
2022/10/05 14:16:59;;;;;;;2.65;1.85;;;21.50;99.90;;;;;;5038363;28;20037;-85
2022/10/05 14:19:44;;;;;;;3.78;1.92;;;21.50;99.90;;;;;;5033246;28;20044;-82
2022/10/05 14:22:14;;;;;;;3.50;1.90;;;21.50;99.90;;;;;;5042031;28;20032;-86